sensor_id;sensor_type;location;lat;lon;timestamp;temperature;humidity
67942;SHT31;54731;42.600;23.476;2024-03-29T00:00:21;10.23;58.56
67942;SHT31;54731;42.600;23.476;2024-03-29T00:02:47;10.23;58.58
67942;SHT31;54731;42.600;23.476;2024-03-29T00:05:12;10.26;58.64
67942;SHT31;54731;42.600;23.476;2024-03-29T00:07:37;10.19;59.09
67942;SHT31;54731;42.600;23.476;2024-03-29T00:10:03;10.13;59.47
67942;SHT31;54731;42.600;23.476;2024-03-29T00:12:28;10.13;59.30
67942;SHT31;54731;42.600;23.476;2024-03-29T00:14:53;10.09;59.72
67942;SHT31;54731;42.600;23.476;2024-03-29T00:17:18;9.91;59.72
67942;SHT31;54731;42.600;23.476;2024-03-29T00:19:44;9.93;59.69
67942;SHT31;54731;42.600;23.476;2024-03-29T00:22:09;9.98;59.59
67942;SHT31;54731;42.600;23.476;2024-03-29T00:24:34;9.91;59.64
67942;SHT31;54731;42.600;23.476;2024-03-29T00:27:00;9.89;59.55
67942;SHT31;54731;42.600;23.476;2024-03-29T00:29:25;9.82;60.09
67942;SHT31;54731;42.600;23.476;2024-03-29T00:31:50;9.81;60.07
67942;SHT31;54731;42.600;23.476;2024-03-29T00:34:15;9.82;59.84
67942;SHT31;54731;42.600;23.476;2024-03-29T00:36:41;9.86;59.26
67942;SHT31;54731;42.600;23.476;2024-03-29T00:39:06;9.91;59.07
67942;SHT31;54731;42.600;23.476;2024-03-29T00:41:32;9.92;58.74
67942;SHT31;54731;42.600;23.476;2024-03-29T00:43:57;9.89;58.95
67942;SHT31;54731;42.600;23.476;2024-03-29T00:46:22;9.89;58.79
67942;SHT31;54731;42.600;23.476;2024-03-29T00:48:48;9.91;58.73
67942;SHT31;54731;42.600;23.476;2024-03-29T00:51:13;9.92;58.51
67942;SHT31;54731;42.600;23.476;2024-03-29T00:53:38;9.96;58.39
67942;SHT31;54731;42.600;23.476;2024-03-29T00:56:04;9.93;58.45
67942;SHT31;54731;42.600;23.476;2024-03-29T00:58:29;9.98;58.50
67942;SHT31;54731;42.600;23.476;2024-03-29T01:00:54;9.99;58.16
67942;SHT31;54731;42.600;23.476;2024-03-29T01:17:53;9.71;58.93
67942;SHT31;54731;42.600;23.476;2024-03-29T01:20:18;9.69;59.24
67942;SHT31;54731;42.600;23.476;2024-03-29T01:22:43;9.68;59.76
67942;SHT31;54731;42.600;23.476;2024-03-29T01:25:08;9.62;60.22
67942;SHT31;54731;42.600;23.476;2024-03-29T01:27:34;9.61;60.27
67942;SHT31;54731;42.600;23.476;2024-03-29T01:29:59;9.51;60.67
67942;SHT31;54731;42.600;23.476;2024-03-29T01:32:25;9.54;60.23
67942;SHT31;54731;42.600;23.476;2024-03-29T01:34:50;9.54;60.32
67942;SHT31;54731;42.600;23.476;2024-03-29T01:37:15;9.57;60.33
67942;SHT31;54731;42.600;23.476;2024-03-29T01:39:41;9.61;59.57
67942;SHT31;54731;42.600;23.476;2024-03-29T01:42:06;9.81;58.81
67942;SHT31;54731;42.600;23.476;2024-03-29T01:44:31;9.88;58.67
67942;SHT31;54731;42.600;23.476;2024-03-29T01:46:57;9.89;58.63
67942;SHT31;54731;42.600;23.476;2024-03-29T01:49:22;9.98;58.56
67942;SHT31;54731;42.600;23.476;2024-03-29T01:51:47;10.03;58.32
67942;SHT31;54731;42.600;23.476;2024-03-29T01:54:13;9.96;58.95
67942;SHT31;54731;42.600;23.476;2024-03-29T01:56:39;9.89;59.19
67942;SHT31;54731;42.600;23.476;2024-03-29T01:59:09;9.79;59.68
67942;SHT31;54731;42.600;23.476;2024-03-29T02:01:36;9.79;59.72
67942;SHT31;54731;42.600;23.476;2024-03-29T02:04:02;9.79;59.48
67942;SHT31;54731;42.600;23.476;2024-03-29T02:06:28;9.82;59.39
67942;SHT31;54731;42.600;23.476;2024-03-29T02:08:53;9.83;59.44
67942;SHT31;54731;42.600;23.476;2024-03-29T02:11:20;9.75;59.91
67942;SHT31;54731;42.600;23.476;2024-03-29T02:13:46;9.69;59.95
67942;SHT31;54731;42.600;23.476;2024-03-29T02:16:12;9.62;60.38
67942;SHT31;54731;42.600;23.476;2024-03-29T02:18:38;9.67;60.33
67942;SHT31;54731;42.600;23.476;2024-03-29T02:21:03;9.62;60.00
67942;SHT31;54731;42.600;23.476;2024-03-29T02:23:29;9.57;60.28
67942;SHT31;54731;42.600;23.476;2024-03-29T02:25:57;9.51;60.90
67942;SHT31;54731;42.600;23.476;2024-03-29T02:28:25;9.52;60.90
67942;SHT31;54731;42.600;23.476;2024-03-29T02:30:50;9.48;60.91
67942;SHT31;54731;42.600;23.476;2024-03-29T02:33:16;9.48;61.06
67942;SHT31;54731;42.600;23.476;2024-03-29T02:35:41;9.45;61.18
67942;SHT31;54731;42.600;23.476;2024-03-29T02:38:06;9.42;61.46
67942;SHT31;54731;42.600;23.476;2024-03-29T02:40:32;9.31;61.61
67942;SHT31;54731;42.600;23.476;2024-03-29T02:42:57;9.34;61.61
67942;SHT31;54731;42.600;23.476;2024-03-29T02:45:22;9.27;61.67
67942;SHT31;54731;42.600;23.476;2024-03-29T02:47:48;9.21;61.81
67942;SHT31;54731;42.600;23.476;2024-03-29T02:50:15;9.24;61.73
67942;SHT31;54731;42.600;23.476;2024-03-29T02:52:40;9.24;61.84
67942;SHT31;54731;42.600;23.476;2024-03-29T02:55:06;9.21;62.12
67942;SHT31;54731;42.600;23.476;2024-03-29T02:57:31;9.20;61.94
67942;SHT31;54731;42.600;23.476;2024-03-29T02:59:56;9.21;62.12
67942;SHT31;54731;42.600;23.476;2024-03-29T03:02:22;9.16;62.02
67942;SHT31;54731;42.600;23.476;2024-03-29T03:04:47;9.23;62.00
67942;SHT31;54731;42.600;23.476;2024-03-29T03:07:12;9.26;61.49
67942;SHT31;54731;42.600;23.476;2024-03-29T03:09:38;9.31;61.24
67942;SHT31;54731;42.600;23.476;2024-03-29T03:12:03;9.38;61.18
67942;SHT31;54731;42.600;23.476;2024-03-29T03:14:29;9.41;61.29
67942;SHT31;54731;42.600;23.476;2024-03-29T03:16:54;9.47;61.22
67942;SHT31;54731;42.600;23.476;2024-03-29T03:19:19;9.52;61.00
67942;SHT31;54731;42.600;23.476;2024-03-29T03:21:44;9.74;60.34
67942;SHT31;54731;42.600;23.476;2024-03-29T03:24:10;9.82;60.02
67942;SHT31;54731;42.600;23.476;2024-03-29T03:26:35;9.91;59.62
67942;SHT31;54731;42.600;23.476;2024-03-29T03:29:00;9.96;59.48
67942;SHT31;54731;42.600;23.476;2024-03-29T03:31:26;10.02;59.32
67942;SHT31;54731;42.600;23.476;2024-03-29T03:33:51;10.12;59.19
67942;SHT31;54731;42.600;23.476;2024-03-29T03:36:16;10.19;58.95
67942;SHT31;54731;42.600;23.476;2024-03-29T03:38:41;10.19;59.24
67942;SHT31;54731;42.600;23.476;2024-03-29T03:41:07;10.22;58.82
67942;SHT31;54731;42.600;23.476;2024-03-29T03:43:32;10.36;58.38
67942;SHT31;54731;42.600;23.476;2024-03-29T03:46:02;10.46;57.74
67942;SHT31;54731;42.600;23.476;2024-03-29T03:48:27;10.50;57.75
67942;SHT31;54731;42.600;23.476;2024-03-29T03:50:53;10.61;57.32
67942;SHT31;54731;42.600;23.476;2024-03-29T03:53:18;10.70;57.11
67942;SHT31;54731;42.600;23.476;2024-03-29T03:55:43;10.64;57.44
67942;SHT31;54731;42.600;23.476;2024-03-29T03:58:09;10.74;57.05
67942;SHT31;54731;42.600;23.476;2024-03-29T04:00:34;10.78;57.06
67942;SHT31;54731;42.600;23.476;2024-03-29T04:02:59;10.77;57.00
67942;SHT31;54731;42.600;23.476;2024-03-29T04:05:25;10.84;56.51
67942;SHT31;54731;42.600;23.476;2024-03-29T04:07:50;10.85;56.58
67942;SHT31;54731;42.600;23.476;2024-03-29T04:10:15;10.83;56.91
67942;SHT31;54731;42.600;23.476;2024-03-29T04:12:41;10.87;56.61
67942;SHT31;54731;42.600;23.476;2024-03-29T04:15:06;10.93;56.44
67942;SHT31;54731;42.600;23.476;2024-03-29T04:17:32;10.94;56.58
67942;SHT31;54731;42.600;23.476;2024-03-29T04:20:01;10.90;56.60
67942;SHT31;54731;42.600;23.476;2024-03-29T04:22:30;10.90;56.70
67942;SHT31;54731;42.600;23.476;2024-03-29T04:24:56;10.94;56.25
67942;SHT31;54731;42.600;23.476;2024-03-29T04:27:21;10.91;56.72
67942;SHT31;54731;42.600;23.476;2024-03-29T04:29:47;10.91;56.78
67942;SHT31;54731;42.600;23.476;2024-03-29T04:32:15;10.88;56.79
67942;SHT31;54731;42.600;23.476;2024-03-29T04:34:40;10.94;56.66
67942;SHT31;54731;42.600;23.476;2024-03-29T04:37:05;10.95;56.58
67942;SHT31;54731;42.600;23.476;2024-03-29T04:39:31;10.94;56.74
67942;SHT31;54731;42.600;23.476;2024-03-29T04:41:56;10.88;56.99
67942;SHT31;54731;42.600;23.476;2024-03-29T04:44:25;10.83;57.72
67942;SHT31;54731;42.600;23.476;2024-03-29T04:46:51;10.85;57.86
67942;SHT31;54731;42.600;23.476;2024-03-29T04:49:22;10.85;57.47
67942;SHT31;54731;42.600;23.476;2024-03-29T04:51:50;10.84;58.11
67942;SHT31;54731;42.600;23.476;2024-03-29T04:54:16;10.87;57.24
67942;SHT31;54731;42.600;23.476;2024-03-29T04:56:42;10.97;57.09
67942;SHT31;54731;42.600;23.476;2024-03-29T04:59:07;11.03;57.02
67942;SHT31;54731;42.600;23.476;2024-03-29T05:01:33;10.94;57.41
67942;SHT31;54731;42.600;23.476;2024-03-29T05:03:58;11.01;57.24
67942;SHT31;54731;42.600;23.476;2024-03-29T05:06:23;10.98;57.65
67942;SHT31;54731;42.600;23.476;2024-03-29T05:08:49;11.03;57.43
67942;SHT31;54731;42.600;23.476;2024-03-29T05:11:14;11.15;56.54
67942;SHT31;54731;42.600;23.476;2024-03-29T05:13:39;11.24;56.59
67942;SHT31;54731;42.600;23.476;2024-03-29T05:16:05;11.34;56.12
67942;SHT31;54731;42.600;23.476;2024-03-29T05:18:30;11.38;56.06
67942;SHT31;54731;42.600;23.476;2024-03-29T05:20:55;11.36;56.12
67942;SHT31;54731;42.600;23.476;2024-03-29T05:23:20;11.45;55.80
67942;SHT31;54731;42.600;23.476;2024-03-29T05:25:46;11.46;55.71
67942;SHT31;54731;42.600;23.476;2024-03-29T05:28:11;11.51;55.97
67942;SHT31;54731;42.600;23.476;2024-03-29T05:30:36;11.49;56.04
67942;SHT31;54731;42.600;23.476;2024-03-29T05:33:04;11.55;55.58
67942;SHT31;54731;42.600;23.476;2024-03-29T05:35:30;11.68;54.85
67942;SHT31;54731;42.600;23.476;2024-03-29T05:37:55;11.76;54.80
67942;SHT31;54731;42.600;23.476;2024-03-29T05:40:20;11.78;54.66
67942;SHT31;54731;42.600;23.476;2024-03-29T05:42:46;11.79;54.72
67942;SHT31;54731;42.600;23.476;2024-03-29T05:45:28;11.93;54.22
67942;SHT31;54731;42.600;23.476;2024-03-29T05:47:54;11.99;54.20
67942;SHT31;54731;42.600;23.476;2024-03-29T05:50:20;11.99;54.58
67942;SHT31;54731;42.600;23.476;2024-03-29T05:52:46;12.07;54.57
67942;SHT31;54731;42.600;23.476;2024-03-29T05:55:11;12.09;53.63
67942;SHT31;54731;42.600;23.476;2024-03-29T05:57:36;12.22;53.71
67942;SHT31;54731;42.600;23.476;2024-03-29T06:00:02;12.26;53.60
67942;SHT31;54731;42.600;23.476;2024-03-29T06:02:27;12.29;53.99
67942;SHT31;54731;42.600;23.476;2024-03-29T06:04:52;12.38;53.05
67942;SHT31;54731;42.600;23.476;2024-03-29T06:07:19;12.41;52.72
67942;SHT31;54731;42.600;23.476;2024-03-29T06:09:44;12.47;52.34
67942;SHT31;54731;42.600;23.476;2024-03-29T06:12:09;12.53;52.26
67942;SHT31;54731;42.600;23.476;2024-03-29T06:14:35;12.64;52.33
67942;SHT31;54731;42.600;23.476;2024-03-29T06:17:00;12.65;52.17
67942;SHT31;54731;42.600;23.476;2024-03-29T06:19:25;12.65;52.47
67942;SHT31;54731;42.600;23.476;2024-03-29T06:21:50;12.68;51.97
67942;SHT31;54731;42.600;23.476;2024-03-29T06:24:16;12.74;52.24
67942;SHT31;54731;42.600;23.476;2024-03-29T06:26:41;12.75;51.54
67942;SHT31;54731;42.600;23.476;2024-03-29T06:29:07;12.83;51.65
67942;SHT31;54731;42.600;23.476;2024-03-29T06:31:33;12.89;51.63
67942;SHT31;54731;42.600;23.476;2024-03-29T06:33:58;12.99;51.56
67942;SHT31;54731;42.600;23.476;2024-03-29T06:36:24;13.05;51.21
67942;SHT31;54731;42.600;23.476;2024-03-29T06:38:49;13.12;51.27
67942;SHT31;54731;42.600;23.476;2024-03-29T06:41:14;13.14;51.43
67942;SHT31;54731;42.600;23.476;2024-03-29T06:43:42;13.11;51.22
67942;SHT31;54731;42.600;23.476;2024-03-29T06:52:48;13.08;51.28
67942;SHT31;54731;42.600;23.476;2024-03-29T06:55:13;13.16;51.78
67942;SHT31;54731;42.600;23.476;2024-03-29T06:57:39;13.23;51.24
67942;SHT31;54731;42.600;23.476;2024-03-29T07:00:04;13.25;51.28
67942;SHT31;54731;42.600;23.476;2024-03-29T07:02:30;13.26;51.12
67942;SHT31;54731;42.600;23.476;2024-03-29T07:04:55;13.28;51.43
67942;SHT31;54731;42.600;23.476;2024-03-29T07:07:20;13.35;51.31
67942;SHT31;54731;42.600;23.476;2024-03-29T07:09:46;13.46;51.67
67942;SHT31;54731;42.600;23.476;2024-03-29T07:12:11;13.53;50.98
67942;SHT31;54731;42.600;23.476;2024-03-29T07:14:36;13.56;50.34
67942;SHT31;54731;42.600;23.476;2024-03-29T07:17:02;13.58;50.23
67942;SHT31;54731;42.600;23.476;2024-03-29T07:19:27;13.62;50.70
67942;SHT31;54731;42.600;23.476;2024-03-29T07:21:52;13.70;50.76
67942;SHT31;54731;42.600;23.476;2024-03-29T07:24:19;13.70;50.86
67942;SHT31;54731;42.600;23.476;2024-03-29T07:26:44;13.76;50.88
67942;SHT31;54731;42.600;23.476;2024-03-29T07:29:09;13.79;50.77
67942;SHT31;54731;42.600;23.476;2024-03-29T07:31:35;13.84;50.91
67942;SHT31;54731;42.600;23.476;2024-03-29T07:34:00;13.87;51.08
67942;SHT31;54731;42.600;23.476;2024-03-29T07:36:26;13.93;50.46
67942;SHT31;54731;42.600;23.476;2024-03-29T07:38:51;14.00;50.43
67942;SHT31;54731;42.600;23.476;2024-03-29T07:41:16;14.11;50.60
67942;SHT31;54731;42.600;23.476;2024-03-29T07:43:57;14.20;50.26
67942;SHT31;54731;42.600;23.476;2024-03-29T07:46:23;14.23;49.56
67942;SHT31;54731;42.600;23.476;2024-03-29T07:48:49;14.33;49.80
67942;SHT31;54731;42.600;23.476;2024-03-29T07:51:14;14.41;49.51
67942;SHT31;54731;42.600;23.476;2024-03-29T07:53:40;14.46;49.02
67942;SHT31;54731;42.600;23.476;2024-03-29T07:56:05;14.52;49.15
67942;SHT31;54731;42.600;23.476;2024-03-29T07:58:30;14.61;49.16
67942;SHT31;54731;42.600;23.476;2024-03-29T08:00:56;14.67;49.35
67942;SHT31;54731;42.600;23.476;2024-03-29T08:03:21;14.81;49.34
67942;SHT31;54731;42.600;23.476;2024-03-29T08:06:03;14.78;48.47
67942;SHT31;54731;42.600;23.476;2024-03-29T08:08:28;14.81;49.32
67942;SHT31;54731;42.600;23.476;2024-03-29T08:10:54;14.98;47.72
67942;SHT31;54731;42.600;23.476;2024-03-29T08:13:19;15.03;47.36
67942;SHT31;54731;42.600;23.476;2024-03-29T08:15:45;15.13;48.21
67942;SHT31;54731;42.600;23.476;2024-03-29T08:18:10;15.16;48.74
67942;SHT31;54731;42.600;23.476;2024-03-29T08:20:35;15.30;48.04
67942;SHT31;54731;42.600;23.476;2024-03-29T08:23:01;15.59;47.56
67942;SHT31;54731;42.600;23.476;2024-03-29T08:25:26;15.63;46.41
67942;SHT31;54731;42.600;23.476;2024-03-29T08:27:51;15.70;45.87
67942;SHT31;54731;42.600;23.476;2024-03-29T08:30:17;15.69;46.42
67942;SHT31;54731;42.600;23.476;2024-03-29T08:32:42;15.71;45.43
67942;SHT31;54731;42.600;23.476;2024-03-29T08:35:10;15.76;44.89
67942;SHT31;54731;42.600;23.476;2024-03-29T08:37:35;15.87;46.32
67942;SHT31;54731;42.600;23.476;2024-03-29T08:40:11;15.96;45.75
67942;SHT31;54731;42.600;23.476;2024-03-29T08:42:37;16.12;45.91
67942;SHT31;54731;42.600;23.476;2024-03-29T08:45:08;16.35;45.33
67942;SHT31;54731;42.600;23.476;2024-03-29T08:47:34;16.28;45.00
67942;SHT31;54731;42.600;23.476;2024-03-29T08:49:59;16.35;45.44
67942;SHT31;54731;42.600;23.476;2024-03-29T08:52:24;16.45;45.49
67942;SHT31;54731;42.600;23.476;2024-03-29T08:54:50;16.62;45.98
67942;SHT31;54731;42.600;23.476;2024-03-29T08:57:15;16.75;46.19
67942;SHT31;54731;42.600;23.476;2024-03-29T08:59:40;16.90;45.90
67942;SHT31;54731;42.600;23.476;2024-03-29T09:02:06;16.97;44.24
67942;SHT31;54731;42.600;23.476;2024-03-29T09:04:31;16.89;44.66
67942;SHT31;54731;42.600;23.476;2024-03-29T09:06:56;16.93;44.99
67942;SHT31;54731;42.600;23.476;2024-03-29T09:09:22;17.06;44.08
67942;SHT31;54731;42.600;23.476;2024-03-29T09:11:47;17.16;45.13
67942;SHT31;54731;42.600;23.476;2024-03-29T09:14:12;17.17;43.98
67942;SHT31;54731;42.600;23.476;2024-03-29T09:16:38;17.28;45.18
67942;SHT31;54731;42.600;23.476;2024-03-29T09:19:03;17.47;43.21
67942;SHT31;54731;42.600;23.476;2024-03-29T09:21:28;17.54;41.93
67942;SHT31;54731;42.600;23.476;2024-03-29T09:23:54;17.44;42.22
67942;SHT31;54731;42.600;23.476;2024-03-29T09:26:19;17.60;42.37
67942;SHT31;54731;42.600;23.476;2024-03-29T09:28:44;17.71;41.70
67942;SHT31;54731;42.600;23.476;2024-03-29T09:31:10;17.80;42.86
67942;SHT31;54731;42.600;23.476;2024-03-29T09:33:35;17.95;43.15
67942;SHT31;54731;42.600;23.476;2024-03-29T09:36:00;18.11;41.41
67942;SHT31;54731;42.600;23.476;2024-03-29T09:38:26;18.00;41.09
67942;SHT31;54731;42.600;23.476;2024-03-29T09:41:03;18.06;41.09
67942;SHT31;54731;42.600;23.476;2024-03-29T09:43:30;17.87;40.78
67942;SHT31;54731;42.600;23.476;2024-03-29T09:45:55;17.95;41.42
67942;SHT31;54731;42.600;23.476;2024-03-29T09:48:21;17.97;40.64
67942;SHT31;54731;42.600;23.476;2024-03-29T09:50:48;18.15;38.30
67942;SHT31;54731;42.600;23.476;2024-03-29T09:53:14;18.36;40.06
67942;SHT31;54731;42.600;23.476;2024-03-29T09:55:39;18.51;38.83
67942;SHT31;54731;42.600;23.476;2024-03-29T09:58:05;18.45;38.35
67942;SHT31;54731;42.600;23.476;2024-03-29T10:00:31;18.55;38.81
67942;SHT31;54731;42.600;23.476;2024-03-29T10:02:56;18.66;39.33
67942;SHT31;54731;42.600;23.476;2024-03-29T10:05:22;18.62;38.96
67942;SHT31;54731;42.600;23.476;2024-03-29T10:07:48;18.77;39.05
67942;SHT31;54731;42.600;23.476;2024-03-29T10:10:13;18.83;37.36
67942;SHT31;54731;42.600;23.476;2024-03-29T10:12:38;19.00;37.85
67942;SHT31;54731;42.600;23.476;2024-03-29T10:15:04;19.13;37.61
67942;SHT31;54731;42.600;23.476;2024-03-29T10:17:30;19.17;37.31
67942;SHT31;54731;42.600;23.476;2024-03-29T10:20:00;19.38;37.07
67942;SHT31;54731;42.600;23.476;2024-03-29T10:22:25;19.28;37.33
67942;SHT31;54731;42.600;23.476;2024-03-29T10:24:50;19.41;37.86
67942;SHT31;54731;42.600;23.476;2024-03-29T10:27:16;19.64;38.37
67942;SHT31;54731;42.600;23.476;2024-03-29T10:29:41;19.61;38.21
67942;SHT31;54731;42.600;23.476;2024-03-29T10:32:06;19.78;37.37
67942;SHT31;54731;42.600;23.476;2024-03-29T10:34:32;19.88;37.35
67942;SHT31;54731;42.600;23.476;2024-03-29T10:36:57;19.78;36.34
67942;SHT31;54731;42.600;23.476;2024-03-29T10:39:22;19.82;36.41
67942;SHT31;54731;42.600;23.476;2024-03-29T10:41:49;19.89;37.39
67942;SHT31;54731;42.600;23.476;2024-03-29T10:44:16;19.89;37.28
67942;SHT31;54731;42.600;23.476;2024-03-29T10:46:43;19.98;38.21
67942;SHT31;54731;42.600;23.476;2024-03-29T10:49:10;20.33;38.12
67942;SHT31;54731;42.600;23.476;2024-03-29T10:51:39;20.28;36.45
67942;SHT31;54731;42.600;23.476;2024-03-29T10:54:13;20.46;36.63
67942;SHT31;54731;42.600;23.476;2024-03-29T10:56:40;20.50;35.69
67942;SHT31;54731;42.600;23.476;2024-03-29T10:59:22;20.63;35.80
67942;SHT31;54731;42.600;23.476;2024-03-29T11:01:54;20.73;35.69
67942;SHT31;54731;42.600;23.476;2024-03-29T11:04:29;20.85;35.25
67942;SHT31;54731;42.600;23.476;2024-03-29T11:06:57;20.76;36.36
67942;SHT31;54731;42.600;23.476;2024-03-29T11:09:27;20.72;36.74
67942;SHT31;54731;42.600;23.476;2024-03-29T11:11:53;20.56;36.20
67942;SHT31;54731;42.600;23.476;2024-03-29T11:14:27;20.83;36.75
67942;SHT31;54731;42.600;23.476;2024-03-29T11:16:54;20.88;35.73
67942;SHT31;54731;42.600;23.476;2024-03-29T11:19:19;21.00;36.18
67942;SHT31;54731;42.600;23.476;2024-03-29T11:21:45;21.11;35.78
67942;SHT31;54731;42.600;23.476;2024-03-29T11:24:10;21.44;35.87
67942;SHT31;54731;42.600;23.476;2024-03-29T11:26:36;21.39;35.56
67942;SHT31;54731;42.600;23.476;2024-03-29T11:29:01;21.66;36.12
67942;SHT31;54731;42.600;23.476;2024-03-29T11:31:27;22.06;37.13
67942;SHT31;54731;42.600;23.476;2024-03-29T11:33:52;22.54;35.95
67942;SHT31;54731;42.600;23.476;2024-03-29T11:36:23;22.93;33.83
67942;SHT31;54731;42.600;23.476;2024-03-29T11:38:52;22.83;33.93
67942;SHT31;54731;42.600;23.476;2024-03-29T11:41:20;22.70;34.10
67942;SHT31;54731;42.600;23.476;2024-03-29T11:43:45;22.59;34.26
67942;SHT31;54731;42.600;23.476;2024-03-29T11:46:12;23.03;34.21
67942;SHT31;54731;42.600;23.476;2024-03-29T11:48:38;23.51;33.86
67942;SHT31;54731;42.600;23.476;2024-03-29T11:51:08;23.95;32.17
67942;SHT31;54731;42.600;23.476;2024-03-29T11:53:36;24.39;31.14
67942;SHT31;54731;42.600;23.476;2024-03-29T11:56:03;24.60;31.26
67942;SHT31;54731;42.600;23.476;2024-03-29T11:58:31;24.07;30.89
67942;SHT31;54731;42.600;23.476;2024-03-29T12:00:58;23.82;31.55
67942;SHT31;54731;42.600;23.476;2024-03-29T12:03:25;24.13;31.92
67942;SHT31;54731;42.600;23.476;2024-03-29T12:05:52;24.98;31.38
67942;SHT31;54731;42.600;23.476;2024-03-29T12:08:17;25.63;29.91
67942;SHT31;54731;42.600;23.476;2024-03-29T12:10:43;25.65;29.75
67942;SHT31;54731;42.600;23.476;2024-03-29T12:13:09;26.30;29.50
67942;SHT31;54731;42.600;23.476;2024-03-29T12:15:35;26.51;28.53
67942;SHT31;54731;42.600;23.476;2024-03-29T12:18:04;25.80;28.70
67942;SHT31;54731;42.600;23.476;2024-03-29T12:20:30;25.89;29.00
67942;SHT31;54731;42.600;23.476;2024-03-29T12:22:58;25.82;29.56
67942;SHT31;54731;42.600;23.476;2024-03-29T12:25:24;26.16;28.79
67942;SHT31;54731;42.600;23.476;2024-03-29T12:27:49;26.23;27.91
67942;SHT31;54731;42.600;23.476;2024-03-29T12:30:15;26.57;28.82
67942;SHT31;54731;42.600;23.476;2024-03-29T12:32:40;27.06;29.01
67942;SHT31;54731;42.600;23.476;2024-03-29T12:35:13;27.77;27.66
67942;SHT31;54731;42.600;23.476;2024-03-29T12:37:47;26.80;27.51
67942;SHT31;54731;42.600;23.476;2024-03-29T12:40:13;26.08;28.22
67942;SHT31;54731;42.600;23.476;2024-03-29T12:42:39;26.10;28.02
67942;SHT31;54731;42.600;23.476;2024-03-29T12:45:05;26.36;27.53
67942;SHT31;54731;42.600;23.476;2024-03-29T12:50:33;26.90;27.66
67942;SHT31;54731;42.600;23.476;2024-03-29T12:53:00;27.38;27.11
67942;SHT31;54731;42.600;23.476;2024-03-29T12:55:27;27.45;26.74
67942;SHT31;54731;42.600;23.476;2024-03-29T12:57:52;27.60;27.02
67942;SHT31;54731;42.600;23.476;2024-03-29T13:00:18;27.84;28.55
67942;SHT31;54731;42.600;23.476;2024-03-29T13:02:44;28.62;26.31
67942;SHT31;54731;42.600;23.476;2024-03-29T13:05:09;29.25;25.51
67942;SHT31;54731;42.600;23.476;2024-03-29T13:07:35;29.74;25.16
67942;SHT31;54731;42.600;23.476;2024-03-29T13:10:00;29.76;25.56
67942;SHT31;54731;42.600;23.476;2024-03-29T13:12:25;30.00;24.87
67942;SHT31;54731;42.600;23.476;2024-03-29T13:14:51;29.81;24.81
67942;SHT31;54731;42.600;23.476;2024-03-29T13:17:16;29.76;24.53
67942;SHT31;54731;42.600;23.476;2024-03-29T13:19:42;30.25;26.11
67942;SHT31;54731;42.600;23.476;2024-03-29T13:22:07;30.69;25.50
67942;SHT31;54731;42.600;23.476;2024-03-29T13:24:32;31.19;24.97
67942;SHT31;54731;42.600;23.476;2024-03-29T13:26:58;31.04;23.70
67942;SHT31;54731;42.600;23.476;2024-03-29T13:29:23;29.59;25.56
67942;SHT31;54731;42.600;23.476;2024-03-29T13:31:48;30.20;25.79
67942;SHT31;54731;42.600;23.476;2024-03-29T13:34:14;30.69;24.39
67942;SHT31;54731;42.600;23.476;2024-03-29T13:36:39;30.47;23.94
67942;SHT31;54731;42.600;23.476;2024-03-29T13:39:05;30.55;23.64
67942;SHT31;54731;42.600;23.476;2024-03-29T13:41:31;30.75;24.96
67942;SHT31;54731;42.600;23.476;2024-03-29T13:43:56;31.36;25.27
67942;SHT31;54731;42.600;23.476;2024-03-29T13:46:21;31.67;23.78
67942;SHT31;54731;42.600;23.476;2024-03-29T13:48:47;31.43;24.61
67942;SHT31;54731;42.600;23.476;2024-03-29T13:51:12;31.71;25.22
67942;SHT31;54731;42.600;23.476;2024-03-29T13:53:37;31.73;23.75
67942;SHT31;54731;42.600;23.476;2024-03-29T13:56:03;30.98;24.22
67942;SHT31;54731;42.600;23.476;2024-03-29T13:58:30;30.75;23.91
67942;SHT31;54731;42.600;23.476;2024-03-29T14:00:55;30.72;24.60
67942;SHT31;54731;42.600;23.476;2024-03-29T14:03:20;30.93;24.06
67942;SHT31;54731;42.600;23.476;2024-03-29T14:05:45;31.16;24.41
67942;SHT31;54731;42.600;23.476;2024-03-29T14:08:11;30.39;23.71
67942;SHT31;54731;42.600;23.476;2024-03-29T14:10:36;29.93;24.27
67942;SHT31;54731;42.600;23.476;2024-03-29T14:13:01;29.37;25.00
67942;SHT31;54731;42.600;23.476;2024-03-29T14:15:27;29.45;24.83
67942;SHT31;54731;42.600;23.476;2024-03-29T14:17:52;29.77;24.92
67942;SHT31;54731;42.600;23.476;2024-03-29T14:20:17;30.52;26.41
67942;SHT31;54731;42.600;23.476;2024-03-29T14:22:42;31.15;24.82
67942;SHT31;54731;42.600;23.476;2024-03-29T14:25:08;31.39;23.76
67942;SHT31;54731;42.600;23.476;2024-03-29T14:27:33;31.64;24.40
67942;SHT31;54731;42.600;23.476;2024-03-29T14:29:58;31.56;22.81
67942;SHT31;54731;42.600;23.476;2024-03-29T14:32:24;31.12;23.32
67942;SHT31;54731;42.600;23.476;2024-03-29T14:34:49;31.04;23.01
67942;SHT31;54731;42.600;23.476;2024-03-29T14:37:14;31.39;24.03
67942;SHT31;54731;42.600;23.476;2024-03-29T14:39:40;31.77;23.75
67942;SHT31;54731;42.600;23.476;2024-03-29T14:42:05;31.36;24.07
67942;SHT31;54731;42.600;23.476;2024-03-29T14:44:30;31.81;23.33
67942;SHT31;54731;42.600;23.476;2024-03-29T14:46:55;31.30;22.51
67942;SHT31;54731;42.600;23.476;2024-03-29T14:49:21;31.61;23.71
67942;SHT31;54731;42.600;23.476;2024-03-29T14:51:46;32.10;23.75
67942;SHT31;54731;42.600;23.476;2024-03-29T14:54:11;31.74;22.96
67942;SHT31;54731;42.600;23.476;2024-03-29T14:56:37;31.98;23.48
67942;SHT31;54731;42.600;23.476;2024-03-29T14:59:06;32.28;23.26
67942;SHT31;54731;42.600;23.476;2024-03-29T15:01:32;32.29;22.88
67942;SHT31;54731;42.600;23.476;2024-03-29T15:03:58;32.27;24.02
67942;SHT31;54731;42.600;23.476;2024-03-29T15:06:24;32.23;23.85
67942;SHT31;54731;42.600;23.476;2024-03-29T15:08:52;31.90;22.90
67942;SHT31;54731;42.600;23.476;2024-03-29T15:11:17;31.16;22.96
67942;SHT31;54731;42.600;23.476;2024-03-29T15:13:43;31.26;24.16
67942;SHT31;54731;42.600;23.476;2024-03-29T15:16:08;31.46;23.13
67942;SHT31;54731;42.600;23.476;2024-03-29T15:18:33;31.71;23.07
67942;SHT31;54731;42.600;23.476;2024-03-29T15:21:00;31.74;23.67
67942;SHT31;54731;42.600;23.476;2024-03-29T15:23:27;31.71;23.04
67942;SHT31;54731;42.600;23.476;2024-03-29T15:25:53;31.80;23.72
67942;SHT31;54731;42.600;23.476;2024-03-29T15:28:20;31.97;23.38
67942;SHT31;54731;42.600;23.476;2024-03-29T15:30:46;32.07;23.82
67942;SHT31;54731;42.600;23.476;2024-03-29T15:33:11;31.74;23.43
67942;SHT31;54731;42.600;23.476;2024-03-29T15:35:36;31.59;23.77